Airfield :
LOGIN :

Register | Disclaimer

   EN    FR    IT 

 










Legend :    VFR   Marginal VFR   IFR   Intensive IFR   Very Intensive IFR
Visi :
Ceiling :
>= 8 km
>= 3000ft
5 to 8 km
1000 to 3000 ft
1500m to 5 km
500 to 1000 ft
800 to 1500m
200 to 500 ft
< 800m
< 200 ft
Symbols :   Thunderstorms  Fog  Heavy snow  Heavy precipitations  Wind > 20 kt
SIGMETs :     Misc.  Thunderstorms  Icing  Turbulence  Mountain Waves  Volcanic Ashes







- Airport Elevation : 184 ft
- IATA code : BRU


EBBR - Bruxelles

CURRENT METAR :
  • 191950Z 16008KT CAVOK 18/13 Q1007 NOSIG

EXPIRED METARs :
  • 191920Z 16007KT CAVOK 18/13 Q1007 NOSIG
  • 191850Z 16006KT CAVOK 18/13 Q1007 NOSIG
  • 191820Z 16007KT 9999 SCT046 19/14 Q1007 NOSIG
  • 191750Z 16006KT CAVOK 19/14 Q1007 NOSIG
  • 191720Z 17006KT 9999 FEW048 20/13 Q1008 NOSIG

TAF TAF EBBR
Valid from the 19 at 18:00 until the 21 at 00:00 UTC


191700Z 1918/2024 18012KT 9999 FEW025
TEMPO 1923/2005 18015G25KT
TEMPO 2002/2006 4000 SHRA RA BKN014
BECMG 2005/2007 23012KT
No reported NOTAMs for that airfield.



MET'MAP, your aeronautical weather chart ! - Copyright ORBIFLY December 2007 - Disclaimer

ORBIFLY MET'MAP TEAM :

Programming & Development : Alexandra Zaïnal
Concept & Development : Baudouin d'Aumeries
Co-Development & Prog : Marc-Olivier Méhu
Technical & hardware support : Manuel Goepfert

Contact : metmap@orbifly.com




SOURCES & CREDITS :

   NOAA